Time;durP1;ratioP1;P1;durP2;ratioP2;P2;SDS_P1;SDS_P2;PMS_P1;PMS_P2;Temp;Humidity;BMP_temperature;BMP_pressure;BME280_temperature;BME280_humidity;BME280_pressure;Samples;Min_cycle;Max_cycle;Signal;HPM_P1;HPM_P2
2024/02/17 00:02:18;;;;;;;7.35;3.75;;;;;;;10.47;100.00;102362.63;10454562;28;20052;-75
2024/02/17 00:07:19;;;;;;;2.78;2.58;;;;;;;10.40;100.00;102369.69;10457058;28;20527;-75
2024/02/17 00:12:19;;;;;;;3.88;2.67;;;;;;;10.33;100.00;102368.63;10456420;28;20029;-75
2024/02/17 00:17:20;;;;;;;2.85;2.63;;;;;;;10.33;100.00;102379.47;10454233;28;20126;-74
2024/02/17 00:22:20;;;;;;;7.47;3.45;;;;;;;10.36;100.00;102381.84;10455370;28;20059;-74
2024/02/17 00:27:21;;;;;;;8.32;2.38;;;;;;;10.35;100.00;102378.28;10455027;28;20518;-75
2024/02/17 00:32:21;;;;;;;6.55;3.53;;;;;;;10.38;100.00;102391.53;10453897;28;20087;-75
2024/02/17 00:37:22;;;;;;;4.43;2.40;;;;;;;10.34;100.00;102400.09;10453477;28;20045;-74
2024/02/17 00:42:22;;;;;;;7.07;3.65;;;;;;;10.29;100.00;102403.31;10454366;28;20036;-75
2024/02/17 00:47:23;;;;;;;3.33;2.88;;;;;;;10.36;100.00;102404.34;10454284;28;20043;-75
2024/02/17 00:52:23;;;;;;;9.05;3.22;;;;;;;10.36;100.00;102415.19;10453917;28;20060;-75
2024/02/17 00:57:23;;;;;;;9.13;3.47;;;;;;;10.38;100.00;102418.59;10453457;28;20029;-75
2024/02/17 01:02:29;;;;;;;8.45;4.18;;;;;;;10.35;100.00;102427.03;10452730;28;20083;-75
2024/02/17 01:07:30;;;;;;;3.57;3.23;;;;;;;10.34;100.00;102427.19;10453356;28;20060;-75
2024/02/17 01:12:30;;;;;;;11.70;4.13;;;;;;;10.32;100.00;102426.50;10453054;28;20056;-74
2024/02/17 01:17:31;;;;;;;4.78;2.67;;;;;;;10.31;100.00;102433.78;10452823;28;20089;-75
2024/02/17 01:22:31;;;;;;;4.13;3.42;;;;;;;10.25;100.00;102451.47;10452616;28;20063;-75
2024/02/17 01:27:32;;;;;;;7.82;4.63;;;;;;;10.23;100.00;102452.63;10452453;28;20578;-74
2024/02/17 01:32:32;;;;;;;9.13;2.78;;;;;;;10.18;100.00;102454.97;10451328;28;20433;-74
2024/02/17 01:37:35;;;;;;;14.00;4.28;;;;;;;10.13;100.00;102462.72;10450996;28;20214;-74
2024/02/17 01:42:36;;;;;;;10.55;4.43;;;;;;;10.09;100.00;102466.75;10451376;28;20040;-75
2024/02/17 01:47:37;;;;;;;14.20;4.50;;;;;;;10.03;100.00;102468.22;10452146;28;20045;-76
2024/02/17 01:52:37;;;;;;;9.18;3.70;;;;;;;10.02;100.00;102477.34;10451579;28;20040;-74
2024/02/17 01:57:38;;;;;;;3.83;3.42;;;;;;;9.95;100.00;102482.50;10450052;28;20064;-75
2024/02/17 02:02:40;;;;;;;8.13;3.22;;;;;;;9.96;100.00;102489.63;10433167;28;20079;-75
2024/02/17 02:07:41;;;;;;;25.42;5.55;;;;;;;9.96;100.00;102492.34;10449983;28;20036;-74
2024/02/17 02:12:42;;;;;;;14.02;5.35;;;;;;;9.96;100.00;102508.56;10449100;28;20041;-75
2024/02/17 02:17:42;;;;;;;20.88;4.05;;;;;;;9.95;100.00;102520.38;10450605;28;20036;-75
2024/02/17 02:22:44;;;;;;;10.15;3.28;;;;;;;9.95;100.00;102516.81;10451366;28;20048;-75
2024/02/17 02:27:45;;;;;;;11.50;3.65;;;;;;;9.95;100.00;102535.78;10455496;28;20116;-75
2024/02/17 02:32:45;;;;;;;14.23;3.58;;;;;;;9.93;100.00;102544.06;10456325;28;20052;-74
2024/02/17 02:37:46;;;;;;;12.15;3.92;;;;;;;9.90;100.00;102533.53;10444435;28;20080;-74
2024/02/17 02:42:46;;;;;;;5.28;3.90;;;;;;;9.88;100.00;102530.13;10455495;28;20117;-75
2024/02/17 02:47:47;;;;;;;9.60;4.20;;;;;;;9.83;100.00;102537.88;10462478;28;20452;-75
2024/02/17 02:52:47;;;;;;;19.08;4.22;;;;;;;9.87;100.00;102544.66;10463293;28;20037;-75
2024/02/17 02:57:47;;;;;;;9.88;4.15;;;;;;;9.86;100.00;102550.22;10465066;28;20069;-74
2024/02/17 03:02:48;;;;;;;6.35;4.68;;;;;;;9.86;100.00;102551.09;10463257;28;20033;-75
2024/02/17 03:07:51;;;;;;;9.52;3.72;;;;;;;9.90;100.00;102563.31;10446688;28;20392;-75
2024/02/17 03:12:51;;;;;;;12.57;3.97;;;;;;;9.90;100.00;102566.00;10460306;28;20124;-75
2024/02/17 03:17:52;;;;;;;14.63;4.35;;;;;;;9.83;100.00;102570.34;10461102;28;20131;-75
2024/02/17 03:22:53;;;;;;;7.57;4.50;;;;;;;9.83;100.00;102573.03;10461924;28;20461;-75
2024/02/17 03:27:53;;;;;;;14.43;4.35;;;;;;;9.87;100.00;102587.13;10461876;28;20123;-75
2024/02/17 03:32:54;;;;;;;10.75;3.88;;;;;;;9.83;100.00;102581.16;10463294;28;20154;-75
2024/02/17 03:37:55;;;;;;;5.40;4.40;;;;;;;9.82;100.00;102592.13;10464469;28;20424;-74
2024/02/17 03:42:55;;;;;;;8.77;4.82;;;;;;;9.85;100.00;102597.22;10461039;28;20136;-74
2024/02/17 03:47:56;;;;;;;6.30;3.83;;;;;;;9.85;100.00;102605.34;10460952;28;20045;-75
2024/02/17 03:52:56;;;;;;;8.38;4.43;;;;;;;9.83;100.00;102607.34;10460153;28;20114;-75
2024/02/17 03:57:57;;;;;;;18.95;9.15;;;;;;;9.85;100.00;102611.59;10461448;28;20033;-75
2024/02/17 04:02:57;;;;;;;9.10;5.35;;;;;;;9.84;100.00;102618.03;10459545;28;20123;-74
2024/02/17 04:07:57;;;;;;;22.85;7.32;;;;;;;9.82;100.00;102614.59;10441696;28;20424;-74
2024/02/17 04:12:58;;;;;;;16.65;4.82;;;;;;;9.81;100.00;102631.84;10467997;28;20373;-74
2024/02/17 04:18:00;;;;;;;12.65;5.70;;;;;;;9.79;100.00;102639.25;10458800;28;20087;-75
2024/02/17 04:23:00;;;;;;;9.23;4.82;;;;;;;9.80;100.00;102646.41;10458369;28;20048;-75
2024/02/17 04:28:02;;;;;;;8.73;4.93;;;;;;;9.78;100.00;102654.66;10460819;28;20040;-75
2024/02/17 04:33:03;;;;;;;22.40;4.07;;;;;;;9.79;100.00;102660.91;10461356;28;20053;-74
2024/02/17 04:38:03;;;;;;;16.80;5.25;;;;;;;9.78;100.00;102660.06;10460069;28;20120;-74
2024/02/17 04:43:04;;;;;;;8.07;3.38;;;;;;;9.78;100.00;102675.44;10460005;28;20033;-74
2024/02/17 04:48:05;;;;;;;10.55;4.38;;;;;;;9.81;100.00;102685.13;10457400;28;20485;-74
2024/02/17 04:53:05;;;;;;;12.25;4.20;;;;;;;9.81;100.00;102680.56;10459141;28;20029;-74
2024/02/17 04:58:06;;;;;;;6.00;4.18;;;;;;;9.85;100.00;102695.47;10457514;28;20377;-74
2024/02/17 05:03:07;;;;;;;7.32;4.22;;;;;;;9.91;100.00;102696.75;10457784;28;20460;-75
2024/02/17 05:08:08;;;;;;;15.02;4.28;;;;;;;9.89;100.00;102694.22;10457756;28;20124;-75
2024/02/17 05:13:08;;;;;;;7.75;4.43;;;;;;;9.90;100.00;102701.31;10457210;28;20040;-74
2024/02/17 05:18:09;;;;;;;7.70;4.15;;;;;;;9.91;100.00;102713.84;10456199;28;20120;-74
2024/02/17 05:23:09;;;;;;;11.43;4.55;;;;;;;9.90;100.00;102725.66;10457660;28;20171;-74
2024/02/17 05:28:10;;;;;;;23.17;6.25;;;;;;;9.89;100.00;102732.09;10455896;28;20044;-74
2024/02/17 05:33:10;;;;;;;5.43;3.83;;;;;;;9.86;100.00;102742.34;10456905;28;20060;-74
2024/02/17 05:38:10;;;;;;;10.73;4.65;;;;;;;9.85;100.00;102752.31;10457829;28;20032;-74
2024/02/17 05:43:11;;;;;;;7.22;3.72;;;;;;;9.84;100.00;102761.44;10457363;28;20029;-74
2024/02/17 05:48:11;;;;;;;11.13;4.75;;;;;;;9.84;100.00;102756.03;10455018;28;20373;-74
2024/02/17 05:53:12;;;;;;;12.90;4.78;;;;;;;9.82;100.00;102755.31;10423050;28;20033;-74
2024/02/17 05:58:12;;;;;;;8.95;4.78;;;;;;;9.81;100.00;102755.47;10456287;28;20036;-74
2024/02/17 06:03:13;;;;;;;14.27;4.53;;;;;;;9.80;100.00;102770.84;10456349;28;20081;-74
2024/02/17 06:08:14;;;;;;;7.30;4.60;;;;;;;9.78;100.00;102778.25;10454200;28;20036;-74
2024/02/17 06:13:14;;;;;;;8.23;5.65;;;;;;;9.76;100.00;102791.94;10453869;28;20425;-74
2024/02/17 06:23:33;;;;;;;9.15;4.82;;;;;;;9.71;100.00;102804.19;10458719;28;20037;-74
2024/02/17 06:28:34;;;;;;;7.50;5.10;;;;;;;9.69;100.00;102800.78;10452737;28;20052;-75
2024/02/17 06:33:34;;;;;;;6.95;5.03;;;;;;;9.66;100.00;102820.84;10453781;28;20053;-74
2024/02/17 06:38:35;;;;;;;11.65;5.35;;;;;;;9.66;100.00;102817.28;10454116;28;20064;-74
2024/02/17 06:43:35;;;;;;;9.30;4.88;;;;;;;9.65;100.00;102821.00;10460859;28;20045;-73
2024/02/17 06:48:36;;;;;;;15.45;5.93;;;;;;;9.64;100.00;102814.75;10453517;28;20057;-75
2024/02/17 06:53:37;;;;;;;9.20;5.22;;;;;;;9.64;100.00;102830.13;10453542;28;20469;-74
2024/02/17 06:58:37;;;;;;;11.85;6.13;;;;;;;9.65;100.00;102842.66;10453671;28;20033;-74
2024/02/17 07:03:37;;;;;;;5.50;3.85;;;;;;;9.64;100.00;102851.75;10453484;28;20516;-74
2024/02/17 07:08:40;;;;;;;12.43;7.50;;;;;;;9.65;100.00;102865.13;10454373;28;20045;-73
2024/02/17 07:13:43;;;;;;;6.22;5.32;;;;;;;9.67;100.00;102878.53;10457629;28;20134;-74
2024/02/17 07:18:43;;;;;;;10.90;6.15;;;;;;;9.65;100.00;102875.94;10462111;28;20120;-74
2024/02/17 07:23:44;;;;;;;14.43;6.32;;;;;;;9.72;100.00;102881.63;10460646;28;20048;-73
2024/02/17 07:28:47;;;;;;;13.25;6.38;;;;;;;9.73;100.00;102891.47;10454283;28;20086;-73
2024/02/17 07:33:49;;;;;;;8.43;5.90;;;;;;;9.74;100.00;102898.59;10453486;28;20133;-73
2024/02/17 07:38:49;;;;;;;11.02;6.25;;;;;;;9.77;100.00;102903.72;10453860;28;20389;-73
2024/02/17 07:43:52;;;;;;;12.00;6.07;;;;;;;9.76;100.00;102911.00;10459954;28;20037;-73
2024/02/17 07:48:52;;;;;;;9.35;6.13;;;;;;;9.80;100.00;102916.97;10443053;28;20370;-73
2024/02/17 07:53:53;;;;;;;22.55;7.28;;;;;;;9.82;100.00;102927.63;10460136;28;20041;-73
2024/02/17 07:58:53;;;;;;;10.77;5.97;;;;;;;9.84;100.00;102926.50;10460637;28;20052;-72
2024/02/17 08:03:55;;;;;;;9.75;5.97;;;;;;;9.86;100.00;102932.63;10458627;28;20457;-72
2024/02/17 08:08:57;;;;;;;8.57;6.43;;;;;;;9.86;100.00;102946.16;10460590;28;20044;-72
2024/02/17 08:13:57;;;;;;;6.72;5.60;;;;;;;9.92;100.00;102942.88;10441874;28;20029;-73
2024/02/17 08:18:57;;;;;;;9.20;6.25;;;;;;;10.04;100.00;102951.69;10457539;28;20033;-72
2024/02/17 08:23:58;;;;;;;9.13;6.57;;;;;;;10.16;100.00;102955.09;10459692;28;20028;-74
2024/02/17 08:28:58;;;;;;;10.38;5.82;;;;;;;10.26;100.00;102964.09;10459885;28;20040;-74
2024/02/17 08:33:59;;;;;;;18.00;6.35;;;;;;;10.37;100.00;102984.75;10461495;28;20075;-73
2024/02/17 08:38:59;;;;;;;8.02;6.45;;;;;;;10.41;100.00;102994.31;10458675;28;20044;-73
2024/02/17 08:44:00;;;;;;;15.43;6.63;;;;;;;10.44;100.00;102997.56;10457934;28;20445;-73
2024/02/17 08:49:00;;;;;;;10.57;5.68;;;;;;;10.45;100.00;103003.84;10458253;28;20059;-73
2024/02/17 08:54:01;;;;;;;9.52;5.82;;;;;;;10.43;100.00;102995.88;10462451;28;20040;-74
2024/02/17 08:59:01;;;;;;;12.88;5.32;;;;;;;10.51;100.00;103005.97;10459225;28;20032;-74
2024/02/17 09:04:01;;;;;;;11.27;6.70;;;;;;;10.64;100.00;103013.78;10457417;28;20040;-73
2024/02/17 09:09:03;;;;;;;14.23;5.68;;;;;;;10.76;100.00;103018.03;10457067;28;20127;-73
2024/02/17 09:14:03;;;;;;;17.38;7.25;;;;;;;10.88;100.00;103014.16;10457014;28;20036;-73
2024/02/17 09:19:03;;;;;;;12.95;6.70;;;;;;;10.96;100.00;103023.41;10457400;28;20072;-74
2024/02/17 09:24:04;;;;;;;9.82;5.50;;;;;;;10.93;100.00;103025.38;10456513;28;20451;-74
2024/02/17 09:29:05;;;;;;;12.52;5.85;;;;;;;11.06;100.00;103027.78;10455582;28;20053;-74
2024/02/17 09:34:05;;;;;;;6.93;3.65;;;;;;;11.19;100.00;103030.16;10456014;28;20071;-74
2024/02/17 09:39:06;;;;;;;5.82;5.13;;;;;;;11.17;100.00;103037.59;10456156;28;20110;-75
2024/02/17 09:44:09;;;;;;;4.75;4.35;;;;;;;11.25;100.00;103034.97;10438409;28;20373;-74
2024/02/17 09:49:09;;;;;;;7.63;5.82;;;;;;;11.30;100.00;103038.09;10438362;28;20045;-74
2024/02/17 09:54:10;;;;;;;6.13;5.55;;;;;;;11.42;100.00;103036.03;10437638;28;20032;-74
2024/02/17 09:59:10;;;;;;;11.70;6.60;;;;;;;11.53;100.00;103040.41;10456216;28;20029;-74
2024/02/17 10:04:11;;;;;;;7.28;4.40;;;;;;;11.71;100.00;103046.75;10453836;28;20491;-74
2024/02/17 10:09:19;;;;;;;10.27;6.68;;;;;;;11.90;100.00;103039.47;10455446;28;20457;-74
2024/02/17 10:14:22;;;;;;;14.93;6.40;;;;;;;12.11;100.00;103050.91;10453915;28;20036;-73
2024/02/17 10:19:23;;;;;;;5.63;5.07;;;;;;;12.21;100.00;103058.97;10456303;28;20052;-73
2024/02/17 10:24:23;;;;;;;14.77;7.00;;;;;;;12.25;100.00;103074.81;10454662;28;20199;-73
2024/02/17 10:29:24;;;;;;;11.93;6.80;;;;;;;12.22;100.00;103074.25;10455361;28;20024;-73
2024/02/17 10:34:24;;;;;;;13.35;7.53;;;;;;;12.27;100.00;103078.22;10454558;28;20403;-73
2024/02/17 10:39:25;;;;;;;6.55;5.10;;;;;;;12.45;100.00;103089.09;10455931;28;20068;-73
2024/02/17 10:44:25;;;;;;;6.70;5.80;;;;;;;12.66;100.00;103096.03;10456138;28;20538;-73
2024/02/17 10:49:29;;;;;;;7.10;5.90;;;;;;;12.71;100.00;103089.13;10457092;28;20144;-74
2024/02/17 10:54:41;;;;;;;13.43;5.85;;;;;;;12.98;100.00;103103.59;10454011;28;20491;-74
2024/02/17 10:59:43;;;;;;;4.38;3.97;;;;;;;13.18;100.00;103110.53;10453978;28;20041;-74
2024/02/17 11:04:43;;;;;;;11.60;5.63;;;;;;;13.26;100.00;103109.75;10456464;28;20098;-74
2024/02/17 11:09:45;;;;;;;8.23;5.13;;;;;;;13.25;100.00;103125.22;10443154;28;20540;-74
2024/02/17 11:14:47;;;;;;;11.77;5.07;;;;;;;13.29;100.00;103138.50;10453634;28;20036;-73
2024/02/17 11:19:47;;;;;;;4.78;4.38;;;;;;;13.33;100.00;103137.16;10461040;28;20400;-73
2024/02/17 11:24:48;;;;;;;5.53;4.35;;;;;;;13.32;100.00;103130.03;10461402;28;20029;-73
2024/02/17 11:29:49;;;;;;;7.97;4.38;;;;;;;13.26;100.00;103126.06;10461478;28;20127;-73
2024/02/17 11:34:49;;;;;;;6.05;4.78;;;;;;;13.32;100.00;103124.59;10460764;28;20115;-73
2024/02/17 11:39:50;;;;;;;4.22;3.47;;;;;;;13.63;100.00;103127.66;10461626;28;20098;-73
2024/02/17 11:44:51;;;;;;;7.35;3.28;;;;;;;13.99;100.00;103132.88;10460987;28;20465;-73
2024/02/17 11:49:51;;;;;;;9.38;4.78;;;;;;;14.11;100.00;103126.97;10460405;28;20224;-73
2024/02/17 11:54:51;;;;;;;9.20;4.72;;;;;;;13.77;100.00;103134.34;10460555;28;20040;-73
2024/02/17 11:59:52;;;;;;;3.97;3.60;;;;;;;13.49;100.00;103134.53;10442219;28;20479;-74
2024/02/17 12:04:52;;;;;;;3.70;3.13;;;;;;;13.25;100.00;103144.28;10460987;28;20032;-73
2024/02/17 12:09:53;;;;;;;4.70;3.35;;;;;;;13.12;100.00;103146.53;10458380;28;20071;-73
2024/02/17 12:14:53;;;;;;;6.18;2.88;;;;;;;12.99;100.00;103151.56;10459247;28;20496;-73
2024/02/17 12:19:54;;;;;;;2.90;2.70;;;;;;;12.93;100.00;103146.75;10459404;28;20040;-73
2024/02/17 12:24:54;;;;;;;5.10;4.20;;;;;;;12.99;100.00;103132.50;10458563;28;20033;-74
2024/02/17 12:29:54;;;;;;;5.63;2.92;;;;;;;12.96;100.00;103135.56;10457656;28;20361;-73
2024/02/17 12:34:55;;;;;;;4.60;3.13;;;;;;;13.03;100.00;103140.19;10459273;28;20065;-74
2024/02/17 12:39:55;;;;;;;18.13;3.40;;;;;;;13.11;100.00;103133.09;10459589;28;20132;-74
2024/02/17 12:44:56;;;;;;;4.30;3.28;;;;;;;13.04;100.00;103138.31;10457613;28;20151;-71
2024/02/17 12:49:56;;;;;;;13.05;2.72;;;;;;;12.84;100.00;103140.38;10457741;28;20209;-74
2024/02/17 12:54:57;;;;;;;5.28;3.13;;;;;;;12.76;100.00;103151.16;10456826;28;20128;-73
2024/02/17 12:59:58;;;;;;;3.28;1.77;;;;;;;12.65;100.00;103157.72;10443380;28;20078;-76
2024/02/17 13:04:59;;;;;;;2.70;2.50;;;;;;;12.49;100.00;103157.56;10459733;28;20036;-75
2024/02/17 13:10:00;;;;;;;3.25;3.00;;;;;;;12.53;100.00;103151.66;10458778;28;20029;-73
2024/02/17 13:15:00;;;;;;;10.48;3.15;;;;;;;12.60;100.00;103154.59;10439852;28;20033;-73
2024/02/17 13:20:03;;;;;;;2.63;2.35;;;;;;;12.64;100.00;103163.31;10461441;28;20202;-73
2024/02/17 13:25:04;;;;;;;5.78;2.90;;;;;;;12.77;100.00;103161.06;10457630;28;20392;-74
2024/02/17 13:30:06;;;;;;;4.30;2.92;;;;;;;12.88;100.00;103159.94;10456737;28;20118;-73
2024/02/17 13:35:07;;;;;;;2.35;1.65;;;;;;;13.25;100.00;103152.44;10455146;28;20065;-74
2024/02/17 13:40:08;;;;;;;3.60;2.90;;;;;;;13.68;100.00;103147.91;10455615;28;20456;-73
2024/02/17 13:45:08;;;;;;;7.93;2.53;;;;;;;14.01;100.00;103147.16;10456131;28;20044;-73
2024/02/17 13:50:10;;;;;;;7.75;2.20;;;;;;;13.91;100.00;103137.28;10454141;28;20129;-74
2024/02/17 13:55:11;;;;;;;1.77;1.67;;;;;;;14.23;100.00;103154.75;10455737;28;20112;-73
2024/02/17 14:00:16;;;;;;;2.88;2.60;;;;;;;14.36;100.00;103151.56;10455407;28;20182;-73
2024/02/17 14:05:16;;;;;;;5.18;2.30;;;;;;;14.13;100.00;103151.31;10455254;28;20045;-73
2024/02/17 14:10:17;;;;;;;13.18;2.47;;;;;;;14.02;100.00;103141.56;10454624;28;20104;-74
2024/02/17 14:15:19;;;;;;;4.75;1.88;;;;;;;13.89;100.00;103147.50;10455227;28;20419;-74
2024/02/17 14:20:20;;;;;;;7.78;3.53;;;;;;;13.77;100.00;103158.84;10421218;28;20025;-74
2024/02/17 14:25:20;;;;;;;7.40;2.72;;;;;;;13.67;100.00;103156.25;10454947;28;20037;-74
2024/02/17 14:30:25;;;;;;;8.98;2.78;;;;;;;13.70;100.00;103145.88;10454771;28;20032;-74
2024/02/17 14:35:26;;;;;;;4.10;2.08;;;;;;;13.62;100.00;103154.00;10455837;28;20045;-73
2024/02/17 14:40:26;;;;;;;6.47;3.17;;;;;;;13.57;100.00;103144.63;10454970;28;20041;-76
2024/02/17 14:45:29;;;;;;;10.07;4.00;;;;;;;13.56;100.00;103151.06;10455187;28;20401;-76
2024/02/17 14:50:29;;;;;;;4.20;2.70;;;;;;;13.52;100.00;103136.09;10457018;28;20029;-74
2024/02/17 14:55:29;;;;;;;5.15;3.22;;;;;;;13.21;100.00;103123.81;10463545;28;20515;-74
2024/02/17 15:00:30;;;;;;;6.47;2.50;;;;;;;13.05;100.00;103134.59;10461206;28;20061;-74
2024/02/17 15:05:30;;;;;;;15.27;3.38;;;;;;;13.19;100.00;103141.31;10462267;28;20033;-73
2024/02/17 15:10:30;;;;;;;8.27;3.05;;;;;;;13.40;100.00;103139.09;10466185;28;20040;-73
2024/02/17 15:15:31;;;;;;;4.88;3.25;;;;;;;13.55;100.00;103142.06;10462546;28;20381;-74
2024/02/17 15:20:31;;;;;;;11.50;3.00;;;;;;;13.41;100.00;103148.13;10462322;28;20072;-73
2024/02/17 15:25:32;;;;;;;7.03;3.45;;;;;;;13.19;100.00;103144.03;10462219;28;20036;-75
2024/02/17 15:30:32;;;;;;;5.50;2.20;;;;;;;13.01;100.00;103154.94;10462285;28;20414;-75
2024/02/17 15:35:32;;;;;;;7.22;2.60;;;;;;;12.83;100.00;103135.09;10460503;28;20049;-73
2024/02/17 15:40:34;;;;;;;3.40;1.90;;;;;;;12.70;100.00;103149.97;10462341;28;20044;-74
2024/02/17 15:45:34;;;;;;;2.55;2.08;;;;;;;12.55;100.00;103146.06;10460015;28;20115;-74
2024/02/17 15:50:35;;;;;;;2.80;2.63;;;;;;;12.41;100.00;103144.75;10460754;28;20045;-74
2024/02/17 15:55:35;;;;;;;11.57;3.05;;;;;;;12.31;100.00;103141.25;10442530;28;20029;-74
2024/02/17 16:00:36;;;;;;;8.13;4.15;;;;;;;12.16;100.00;103140.94;10459546;28;20045;-73
2024/02/17 16:05:36;;;;;;;8.55;3.40;;;;;;;11.97;100.00;103143.78;10461052;28;20037;-73
2024/02/17 16:10:37;;;;;;;11.45;3.25;;;;;;;11.76;100.00;103139.41;10442636;28;20041;-73
2024/02/17 16:15:37;;;;;;;9.00;3.45;;;;;;;11.68;100.00;103135.72;10459012;28;20090;-74
2024/02/17 16:20:38;;;;;;;13.48;3.55;;;;;;;11.74;100.00;103121.56;10458510;28;20033;-73
2024/02/17 16:25:39;;;;;;;2.58;2.00;;;;;;;11.81;100.00;103126.25;10460769;28;20037;-74
2024/02/17 16:30:39;;;;;;;7.07;3.53;;;;;;;11.89;100.00;103135.53;10457766;28;20073;-74
2024/02/17 16:35:40;;;;;;;5.68;2.95;;;;;;;11.93;100.00;103136.91;10459150;28;20069;-73
2024/02/17 16:40:40;;;;;;;7.97;3.58;;;;;;;11.94;100.00;103135.94;10459077;28;20040;-74
2024/02/17 16:45:41;;;;;;;10.70;3.95;;;;;;;11.90;100.00;103131.78;10459049;28;20132;-73
2024/02/17 16:50:41;;;;;;;7.63;4.38;;;;;;;11.95;100.00;103129.47;10458547;28;20507;-75
2024/02/17 16:55:42;;;;;;;15.13;8.98;;;;;;;11.88;100.00;103123.81;10458216;28;20466;-76
2024/02/17 17:00:42;;;;;;;6.22;5.32;;;;;;;11.82;100.00;103124.38;10458173;28;20064;-74
2024/02/17 17:05:43;;;;;;;10.60;4.95;;;;;;;11.85;100.00;103134.97;10458739;28;20033;-74
2024/02/17 17:10:45;;;;;;;4.93;4.43;;;;;;;11.86;100.00;103128.53;10456277;28;20504;-74
2024/02/17 17:15:46;;;;;;;4.82;4.05;;;;;;;11.89;100.00;103135.53;10456352;28;20058;-73
2024/02/17 17:20:46;;;;;;;12.73;3.72;;;;;;;11.76;100.00;103142.13;10458724;28;20033;-73
2024/02/17 17:25:47;;;;;;;16.35;5.05;;;;;;;11.84;100.00;103139.56;10456948;28;20056;-73
2024/02/17 17:30:48;;;;;;;8.15;4.28;;;;;;;11.83;100.00;103137.78;10456314;28;20116;-74
2024/02/17 17:35:48;;;;;;;7.32;5.53;;;;;;;11.85;100.00;103140.41;10456184;28;20057;-73
2024/02/17 17:40:49;;;;;;;6.22;3.90;;;;;;;11.80;100.00;103142.66;10455853;28;20047;-73
2024/02/17 17:45:49;;;;;;;11.10;4.30;;;;;;;11.69;100.00;103154.59;10461339;28;20033;-74
2024/02/17 17:50:49;;;;;;;17.20;4.38;;;;;;;11.58;100.00;103150.22;10455261;28;20041;-75
2024/02/17 17:55:50;;;;;;;11.70;6.15;;;;;;;11.61;100.00;103147.22;10438392;28;20124;-74
2024/02/17 18:00:51;;;;;;;4.90;2.78;;;;;;;11.34;100.00;103142.59;10439286;28;20024;-73
2024/02/17 18:05:51;;;;;;;13.15;3.97;;;;;;;11.34;100.00;103158.84;10456052;28;20120;-75
2024/02/17 18:10:54;;;;;;;5.35;4.05;;;;;;;11.21;100.00;103154.75;10455199;28;20389;-74
2024/02/17 18:15:55;;;;;;;12.48;4.82;;;;;;;11.13;100.00;103147.34;10455372;28;20365;-74
2024/02/17 18:20:55;;;;;;;6.40;4.03;;;;;;;11.10;100.00;103162.06;10455165;28;20033;-74
2024/02/17 18:26:02;;;;;;;8.45;4.35;;;;;;;10.97;100.00;103163.34;10455254;28;20033;-73
2024/02/17 18:31:02;;;;;;;10.10;4.93;;;;;;;10.88;100.00;103159.66;10438434;28;20041;-73
2024/02/17 18:36:03;;;;;;;21.35;6.90;;;;;;;10.85;100.00;103157.25;10456290;28;20121;-73
2024/02/17 18:41:06;;;;;;;31.88;18.65;;;;;;;10.87;100.00;103153.38;10454813;28;20403;-73
2024/02/17 18:46:07;;;;;;;14.95;6.18;;;;;;;10.93;100.00;103143.81;10454935;28;20091;-74
2024/02/17 18:51:09;;;;;;;6.63;6.03;;;;;;;10.97;100.00;103155.22;10454777;28;20384;-73
2024/02/17 18:56:10;;;;;;;9.25;5.40;;;;;;;10.92;100.00;103142.97;10452744;28;20098;-74
2024/02/17 19:01:10;;;;;;;15.75;6.68;;;;;;;10.92;100.00;103155.66;10453871;28;20118;-73
2024/02/17 19:06:12;;;;;;;9.48;4.65;;;;;;;10.89;100.00;103154.09;10452582;28;20036;-73
2024/02/17 19:11:12;;;;;;;15.27;5.50;;;;;;;10.81;100.00;103145.81;10454738;28;20091;-73
2024/02/17 19:16:17;;;;;;;8.38;4.70;;;;;;;10.80;100.00;103144.13;10455708;28;20029;-74
2024/02/17 19:21:17;;;;;;;11.60;5.43;;;;;;;10.73;100.00;103148.41;10453713;28;20036;-73
2024/02/17 19:26:17;;;;;;;9.90;5.32;;;;;;;10.82;100.00;103144.00;10454761;28;20479;-73
2024/02/17 19:31:18;;;;;;;22.13;6.68;;;;;;;10.80;100.00;103149.53;10457734;28;20040;-73
2024/02/17 19:36:18;;;;;;;10.05;5.00;;;;;;;10.80;100.00;103146.81;10455526;28;20053;-73
2024/02/17 19:41:19;;;;;;;5.15;4.75;;;;;;;10.80;100.00;103133.28;10461140;28;20120;-73
2024/02/17 19:46:19;;;;;;;7.47;5.28;;;;;;;10.77;100.00;103128.16;10462507;28;20060;-74
2024/02/17 19:51:19;;;;;;;8.95;5.85;;;;;;;10.84;100.00;103126.56;10462406;28;20037;-74
2024/02/17 19:56:20;;;;;;;6.78;5.05;;;;;;;10.83;100.00;103132.13;10460652;28;20131;-74
2024/02/17 20:01:23;;;;;;;14.98;7.55;;;;;;;10.88;100.00;103138.84;10464422;28;20037;-73
2024/02/17 20:06:24;;;;;;;10.57;7.07;;;;;;;10.84;100.00;103118.41;10460512;28;20461;-72
2024/02/17 20:11:25;;;;;;;8.88;7.03;;;;;;;10.83;100.00;103115.88;10458939;28;20435;-74
2024/02/17 20:16:25;;;;;;;12.23;6.68;;;;;;;10.81;100.00;103117.88;10459991;28;20103;-73
2024/02/17 20:21:26;;;;;;;11.63;6.43;;;;;;;10.89;100.00;103116.16;10459760;28;20113;-74
2024/02/17 20:26:27;;;;;;;30.35;8.52;;;;;;;11.01;100.00;103102.41;10458410;28;20056;-73
2024/02/17 20:31:27;;;;;;;8.88;6.43;;;;;;;11.09;100.00;103122.38;10459302;28;20037;-75
2024/02/17 20:36:28;;;;;;;19.48;8.57;;;;;;;11.08;100.00;103114.41;10457766;28;20484;-74
2024/02/17 20:41:28;;;;;;;13.07;7.22;;;;;;;11.04;100.00;103107.53;10459497;28;20033;-73
2024/02/17 20:46:29;;;;;;;13.15;6.57;;;;;;;10.88;100.00;103117.16;10459153;28;20059;-74
2024/02/17 20:51:29;;;;;;;13.02;7.05;;;;;;;10.74;100.00;103109.47;10458549;28;20346;-73
2024/02/17 20:56:29;;;;;;;13.50;6.35;;;;;;;10.74;100.00;103114.88;10458267;28;20029;-75
2024/02/17 21:01:30;;;;;;;11.40;6.55;;;;;;;10.72;100.00;103114.19;10458108;28;20051;-73
2024/02/17 21:06:30;;;;;;;6.93;5.75;;;;;;;10.86;100.00;103102.88;10458111;28;20060;-74
2024/02/17 21:11:30;;;;;;;8.85;6.40;;;;;;;10.96;100.00;103097.44;10440530;28;20441;-73
2024/02/17 21:16:31;;;;;;;8.88;6.63;;;;;;;11.09;100.00;103108.81;10458391;28;20025;-73
2024/02/17 21:21:31;;;;;;;11.48;7.80;;;;;;;11.05;100.00;103098.44;10455732;28;20110;-74
2024/02/17 21:26:34;;;;;;;13.25;7.63;;;;;;;11.04;100.00;103091.28;10457555;28;20425;-74
2024/02/17 21:31:34;;;;;;;8.77;6.68;;;;;;;11.03;100.00;103086.88;10457034;28;20065;-74
2024/02/17 21:36:39;;;;;;;6.75;5.80;;;;;;;11.02;100.00;103083.31;10461253;28;20124;-73
2024/02/17 21:41:41;;;;;;;7.75;6.45;;;;;;;10.75;100.00;103069.66;10455478;28;20076;-74
2024/02/17 21:46:41;;;;;;;11.20;6.45;;;;;;;10.61;100.00;103079.94;10454346;28;20143;-73
2024/02/17 21:51:42;;;;;;;7.00;5.93;;;;;;;10.62;100.00;103072.69;10455324;28;20123;-75
2024/02/17 21:56:45;;;;;;;21.35;6.97;;;;;;;10.62;100.00;103078.09;10456346;28;20029;-74
2024/02/17 22:01:45;;;;;;;14.13;6.93;;;;;;;10.68;100.00;103070.22;10454402;28;20043;-74
2024/02/17 22:06:45;;;;;;;11.60;8.23;;;;;;;10.69;100.00;103063.84;10455750;28;20408;-74
2024/02/17 22:11:46;;;;;;;9.85;6.40;;;;;;;10.69;100.00;103054.84;10444620;28;20167;-74
2024/02/17 22:16:46;;;;;;;7.38;6.55;;;;;;;10.80;100.00;103057.38;10455653;28;20040;-74
2024/02/17 22:21:47;;;;;;;11.90;9.25;;;;;;;10.87;100.00;103053.09;10454427;28;20483;-74
2024/02/17 22:26:47;;;;;;;13.70;8.70;;;;;;;10.71;100.00;103042.84;10437264;28;20028;-74
2024/02/17 22:31:47;;;;;;;7.88;7.20;;;;;;;10.62;100.00;103038.31;10455367;28;20174;-74
2024/02/17 22:36:48;;;;;;;10.43;9.32;;;;;;;10.67;100.00;103032.47;10454942;28;20053;-74
2024/02/17 22:41:52;;;;;;;15.98;8.63;;;;;;;10.67;100.00;103035.16;10453624;28;20076;-75
2024/02/17 22:46:52;;;;;;;9.48;7.93;;;;;;;10.87;100.00;103030.56;10452854;28;20055;-74
2024/02/17 22:51:53;;;;;;;8.40;6.82;;;;;;;10.93;100.00;103027.25;10454023;28;20037;-74